createdAt,value
2018-07-03T00:00:43.857Z,12.16
2018-07-03T00:01:43.774Z,12.19
2018-07-03T00:02:43.709Z,12.13
2018-07-03T00:03:43.625Z,12.15
2018-07-03T00:04:43.552Z,12.24
2018-07-03T00:05:43.471Z,12.24
2018-07-03T00:06:43.400Z,12.30
2018-07-03T00:07:43.320Z,12.41
2018-07-03T00:08:43.251Z,12.42
2018-07-03T00:09:43.171Z,12.46
2018-07-03T00:10:43.103Z,12.30
2018-07-03T00:11:43.017Z,12.23
2018-07-03T00:12:42.945Z,12.12
2018-07-03T00:13:42.863Z,12.08
2018-07-03T00:14:42.796Z,11.98
2018-07-03T00:15:42.716Z,11.94
2018-07-03T00:16:42.643Z,11.94
2018-07-03T00:17:42.561Z,11.95
2018-07-03T00:18:42.495Z,12.08
2018-07-03T00:19:42.409Z,11.97
2018-07-03T00:20:42.341Z,11.97
2018-07-03T00:21:42.258Z,11.94
2018-07-03T00:22:42.186Z,12.00
2018-07-03T00:23:42.102Z,12.05
2018-07-03T00:24:42.083Z,11.98
2018-07-03T00:25:41.951Z,11.95
2018-07-03T00:26:41.884Z,11.95
2018-07-03T00:27:41.806Z,11.83
2018-07-03T00:28:41.732Z,11.95
2018-07-03T00:29:41.646Z,11.89
2018-07-03T00:30:41.580Z,11.69
2018-07-03T00:31:41.495Z,11.54
2018-07-03T00:32:41.428Z,11.57
2018-07-03T00:33:41.341Z,11.59
2018-07-03T00:34:41.277Z,11.54
2018-07-03T00:35:41.192Z,11.54
2018-07-03T00:36:41.127Z,11.59
2018-07-03T00:37:41.040Z,11.68
2018-07-03T00:38:40.969Z,11.74
2018-07-03T00:39:40.886Z,11.71
2018-07-03T00:40:40.813Z,11.74
2018-07-03T00:41:40.733Z,11.71
2018-07-03T00:42:40.670Z,11.60
2018-07-03T00:43:40.579Z,11.56
2018-07-03T00:44:40.509Z,11.59
2018-07-03T00:45:40.427Z,11.53
2018-07-03T00:46:40.357Z,11.51
2018-07-03T00:47:40.275Z,11.50
2018-07-03T00:48:40.209Z,11.64
2018-07-03T00:49:40.122Z,11.54
2018-07-03T00:50:40.053Z,11.56
2018-07-03T00:51:39.971Z,11.60
2018-07-03T00:52:39.901Z,11.65
2018-07-03T00:53:39.820Z,11.57
2018-07-03T00:54:39.749Z,11.60
2018-07-03T00:55:39.667Z,11.53
2018-07-03T00:56:39.596Z,11.54
2018-07-03T00:57:39.512Z,11.41
2018-07-03T00:58:39.452Z,11.38
2018-07-03T00:59:39.359Z,11.28
2018-07-03T01:00:39.291Z,11.24
2018-07-03T01:01:39.206Z,11.32
2018-07-03T01:02:39.145Z,11.32
2018-07-03T01:03:39.053Z,11.32
2018-07-03T01:04:38.982Z,11.36
2018-07-03T01:05:38.898Z,11.31
2018-07-03T01:06:38.835Z,11.29
2018-07-03T01:07:38.746Z,11.36
2018-07-03T01:08:38.679Z,11.34
2018-07-03T01:09:38.598Z,11.31
2018-07-03T01:10:38.521Z,11.34
2018-07-03T01:11:38.441Z,11.26
2018-07-03T01:12:38.381Z,11.38
2018-07-03T01:13:38.288Z,11.29
2018-07-03T01:14:38.223Z,11.29
2018-07-03T01:15:38.135Z,11.36
2018-07-03T01:16:38.070Z,11.31
2018-07-03T01:17:37.983Z,11.34
2018-07-03T01:18:37.909Z,11.38
2018-07-03T01:19:37.831Z,11.35
2018-07-03T01:20:37.758Z,11.39
2018-07-03T01:21:37.676Z,11.46
2018-07-03T01:22:37.607Z,11.54
2018-07-03T01:23:37.524Z,11.51
2018-07-03T01:24:37.455Z,11.61
2018-07-03T01:25:37.371Z,11.65
2018-07-03T01:26:37.304Z,11.56
2018-07-03T01:27:37.220Z,11.61
2018-07-03T01:28:37.148Z,11.53
2018-07-03T01:29:37.062Z,11.35
2018-07-03T01:30:36.994Z,11.34
2018-07-03T01:31:36.914Z,11.05
2018-07-03T01:32:36.844Z,11.02
2018-07-03T01:33:36.757Z,10.99
2018-07-03T01:34:36.689Z,10.96
2018-07-03T01:35:36.609Z,10.98
2018-07-03T01:36:36.534Z,11.13
2018-07-03T01:37:36.452Z,11.11
2018-07-03T01:38:36.387Z,11.16
2018-07-03T01:39:36.301Z,11.13
2018-07-03T01:40:36.226Z,11.14
2018-07-03T01:41:36.145Z,11.11
2018-07-03T01:42:36.077Z,11.29
2018-07-03T01:43:35.992Z,11.29
2018-07-03T01:44:35.921Z,11.20
2018-07-03T01:45:35.837Z,11.10
2018-07-03T01:46:35.769Z,11.00
2018-07-03T01:47:35.685Z,11.05
2018-07-03T01:48:35.616Z,10.85
2018-07-03T01:49:35.532Z,10.95
2018-07-03T01:50:35.462Z,10.88
2018-07-03T01:51:35.379Z,10.85
2018-07-03T01:52:35.309Z,11.00
2018-07-03T01:53:35.225Z,11.08
2018-07-03T01:54:35.155Z,11.02
2018-07-03T01:55:35.071Z,11.05
2018-07-03T01:56:35.002Z,11.11
2018-07-03T01:57:34.918Z,11.10
2018-07-03T01:58:34.850Z,11.11
2018-07-03T01:59:34.765Z,11.10
2018-07-03T02:00:34.695Z,11.11
2018-07-03T02:01:34.613Z,11.17
2018-07-03T02:02:34.541Z,11.10
2018-07-03T02:03:34.457Z,11.00
2018-07-03T02:04:34.388Z,10.87
2018-07-03T02:05:34.302Z,10.84
2018-07-03T02:06:34.234Z,10.69
2018-07-03T02:07:34.150Z,10.65
2018-07-03T02:08:34.078Z,10.55
2018-07-03T02:09:33.995Z,10.58
2018-07-03T02:10:33.927Z,10.43
2018-07-03T02:11:33.841Z,10.41
2018-07-03T02:12:33.773Z,10.19
2018-07-03T02:13:33.692Z,10.15
2018-07-03T02:14:33.620Z,10.07
2018-07-03T02:15:33.535Z,10.04
2018-07-03T02:16:33.468Z,10.10
2018-07-03T02:17:33.384Z,10.07
2018-07-03T02:18:33.314Z,10.18
2018-07-03T02:19:33.227Z,10.23
2018-07-03T02:20:33.165Z,10.23
2018-07-03T02:21:33.076Z,10.22
2018-07-03T02:22:33.010Z,10.15
2018-07-03T02:23:32.919Z,10.10
2018-07-03T02:24:32.850Z,10.11
2018-07-03T02:25:32.766Z,10.08
2018-07-03T02:26:32.696Z,10.08
2018-07-03T02:27:32.612Z,10.16
2018-07-03T02:28:32.546Z,10.29
2018-07-03T02:29:32.457Z,10.22
2018-07-03T02:30:32.387Z,10.33
2018-07-03T02:31:32.305Z,10.39
2018-07-03T02:32:32.233Z,10.28
2018-07-03T02:33:32.149Z,10.13
2018-07-03T02:34:32.081Z,10.04
2018-07-03T02:35:31.995Z,10.07
2018-07-03T02:36:31.921Z,9.89
2018-07-03T02:37:31.844Z,9.89
2018-07-03T02:38:31.770Z,9.96
2018-07-03T02:39:31.690Z,10.00
2018-07-03T02:40:31.619Z,9.89
2018-07-03T02:41:31.534Z,9.93
2018-07-03T02:42:31.464Z,10.00
2018-07-03T02:43:31.381Z,10.10
2018-07-03T02:44:31.311Z,10.07
2018-07-03T02:45:31.225Z,10.03
2018-07-03T02:46:31.151Z,10.03
2018-07-03T02:47:31.071Z,10.07
2018-07-03T02:48:31.000Z,10.06
2018-07-03T02:49:30.917Z,10.10
2018-07-03T02:50:30.856Z,9.88
2018-07-03T02:51:30.766Z,9.93
2018-07-03T02:52:30.696Z,9.93
2018-07-03T02:53:30.608Z,9.92
2018-07-03T02:54:30.539Z,9.85
2018-07-03T02:55:30.454Z,9.82
2018-07-03T02:56:30.383Z,9.78
2018-07-03T02:57:30.301Z,9.64
2018-07-03T02:58:30.228Z,9.71
2018-07-03T02:59:30.147Z,9.79
2018-07-03T03:00:30.076Z,9.80
2018-07-03T03:01:29.991Z,9.85
2018-07-03T03:02:29.921Z,9.68
2018-07-03T03:03:29.836Z,9.67
2018-07-03T03:04:29.769Z,9.68
2018-07-03T03:05:29.686Z,9.65
2018-07-03T03:06:29.612Z,9.61
2018-07-03T03:07:29.527Z,9.68
2018-07-03T03:08:29.461Z,9.71
2018-07-03T03:09:29.369Z,9.74
2018-07-03T03:10:29.401Z,9.82
2018-07-03T03:11:29.216Z,9.78
2018-07-03T03:12:29.149Z,9.71
2018-07-03T03:13:29.065Z,9.61
2018-07-03T03:14:29.017Z,9.52
2018-07-03T03:15:28.909Z,9.52
2018-07-03T03:16:28.925Z,9.49
2018-07-03T03:17:28.752Z,9.38
2018-07-03T03:18:28.736Z,9.37
2018-07-03T03:19:28.598Z,9.37
2018-07-03T03:20:28.542Z,9.40
2018-07-03T03:21:28.443Z,9.49
2018-07-03T03:22:28.402Z,9.56
2018-07-03T03:23:28.289Z,9.52
2018-07-03T03:24:28.261Z,9.61
2018-07-03T03:25:28.133Z,9.63
2018-07-03T03:26:28.171Z,9.64
2018-07-03T03:27:27.984Z,9.63
2018-07-03T03:28:27.911Z,9.63
2018-07-03T03:29:27.823Z,9.70
2018-07-03T03:30:27.787Z,9.70
2018-07-03T03:31:27.672Z,9.68
2018-07-03T03:32:27.699Z,9.63
2018-07-03T03:33:27.513Z,9.70
2018-07-03T03:34:27.505Z,9.83
2018-07-03T03:35:27.359Z,9.78
2018-07-03T03:36:27.315Z,9.71
2018-07-03T03:37:27.205Z,9.72
2018-07-03T03:38:27.134Z,9.71
2018-07-03T03:39:27.052Z,9.56
2018-07-03T03:40:27.034Z,9.46
2018-07-03T03:41:26.897Z,9.37
2018-07-03T03:42:26.829Z,9.42
2018-07-03T03:43:26.745Z,9.35
2018-07-03T03:44:26.752Z,9.32
2018-07-03T03:45:26.592Z,9.28
2018-07-03T03:46:26.561Z,9.31
2018-07-03T03:47:26.427Z,9.24
2018-07-03T03:48:26.363Z,9.27
2018-07-03T03:49:26.273Z,9.28
2018-07-03T03:50:26.207Z,9.10
2018-07-03T03:51:26.120Z,9.19
2018-07-03T03:52:26.089Z,9.25
2018-07-03T03:53:26.006Z,9.29
2018-07-03T03:54:25.998Z,9.25
2018-07-03T03:55:25.814Z,9.13
2018-07-03T03:56:25.807Z,9.13
2018-07-03T03:57:25.656Z,9.32
2018-07-03T03:58:25.617Z,9.19
2018-07-03T03:59:25.500Z,9.27
2018-07-03T04:00:25.534Z,9.19
2018-07-03T04:01:25.343Z,9.22
2018-07-03T04:02:25.337Z,9.16
2018-07-03T04:03:25.194Z,9.27
2018-07-03T04:04:25.141Z,9.25
2018-07-03T04:05:25.035Z,9.10
2018-07-03T04:06:25.052Z,9.28
2018-07-03T04:07:24.888Z,9.14
2018-07-03T04:08:24.860Z,9.19
2018-07-03T04:09:24.724Z,9.34
2018-07-03T04:10:24.656Z,9.31
2018-07-03T04:11:24.574Z,9.37
2018-07-03T04:12:24.503Z,9.49
2018-07-03T04:13:24.413Z,9.43
2018-07-03T04:14:24.347Z,9.52
2018-07-03T04:15:24.259Z,9.60
2018-07-03T04:16:24.195Z,9.61
2018-07-03T04:17:24.105Z,9.53
2018-07-03T04:18:24.107Z,9.64
2018-07-03T04:19:23.948Z,9.56
2018-07-03T04:20:23.914Z,9.68
2018-07-03T04:21:23.791Z,9.71
2018-07-03T04:22:23.825Z,9.74
2018-07-03T04:23:23.675Z,9.79
2018-07-03T04:24:23.566Z,9.83
2018-07-03T04:25:23.481Z,9.85
2018-07-03T04:26:23.417Z,9.82
2018-07-03T04:27:23.331Z,9.80
2018-07-03T04:28:23.257Z,9.74
2018-07-03T04:29:23.174Z,9.92
2018-07-03T04:30:23.104Z,9.93
2018-07-03T04:31:23.021Z,9.88
2018-07-03T04:32:22.942Z,9.93
2018-07-03T04:33:22.861Z,10.07
2018-07-03T04:34:22.793Z,10.13
2018-07-03T04:35:22.707Z,10.15
2018-07-03T04:36:22.653Z,10.10
2018-07-03T04:37:22.551Z,10.13
2018-07-03T04:38:22.481Z,10.29
2018-07-03T04:39:22.396Z,10.23
2018-07-03T04:40:22.318Z,10.33
2018-07-03T04:41:22.343Z,10.41
2018-07-03T04:42:22.227Z,10.40
2018-07-03T04:43:22.085Z,10.40
2018-07-03T04:44:22.124Z,10.46
2018-07-03T04:45:21.981Z,10.55
2018-07-03T04:46:22.150Z,10.59
2018-07-03T04:47:21.948Z,10.58
2018-07-03T04:48:21.968Z,10.66
2018-07-03T04:49:21.621Z,10.66
2018-07-03T04:50:21.745Z,10.74
2018-07-03T04:51:21.705Z,10.80
2018-07-03T04:52:21.647Z,10.83
2018-07-03T04:53:21.616Z,10.87
2018-07-03T04:54:21.487Z,10.84
2018-07-03T04:55:21.200Z,10.91
2018-07-03T04:56:21.382Z,10.96
2018-07-03T04:57:21.341Z,10.99
2018-07-03T04:58:21.027Z,10.96
2018-07-03T04:59:20.907Z,11.03
2018-07-03T05:00:20.770Z,11.13
2018-07-03T05:01:20.701Z,11.13
2018-07-03T05:02:20.614Z,11.11
2018-07-03T05:03:20.612Z,11.18
2018-07-03T05:04:20.459Z,11.31
2018-07-03T05:05:20.391Z,11.31
2018-07-03T05:06:20.307Z,11.31
2018-07-03T05:07:20.237Z,11.38
2018-07-03T05:08:20.153Z,11.36
2018-07-03T05:09:20.137Z,11.34
2018-07-03T05:10:20.013Z,11.47
2018-07-03T05:11:19.946Z,11.56
2018-07-03T05:12:19.844Z,11.46
2018-07-03T05:13:19.856Z,11.64
2018-07-03T05:14:19.689Z,11.64
2018-07-03T05:15:19.667Z,11.65
2018-07-03T05:16:19.536Z,11.65
2018-07-03T05:17:19.582Z,11.75
2018-07-03T05:18:19.381Z,11.71
2018-07-03T05:19:19.382Z,11.79
2018-07-03T05:20:19.226Z,11.86
2018-07-03T05:21:19.191Z,11.86
2018-07-03T05:22:19.075Z,11.90
2018-07-03T05:23:19.104Z,11.90
2018-07-03T05:24:18.918Z,11.95
2018-07-03T05:25:19.940Z,12.03
2018-07-03T05:26:18.764Z,12.08
2018-07-03T05:27:20.772Z,12.11
2018-07-03T05:28:18.624Z,12.24
2018-07-03T05:29:19.554Z,12.24
2018-07-03T05:30:18.456Z,12.33
2018-07-03T05:31:18.444Z,12.36
2018-07-03T05:32:18.308Z,12.44
2018-07-03T05:33:18.248Z,12.49
2018-07-03T05:34:18.148Z,12.56
2018-07-03T05:35:18.161Z,12.59
2018-07-03T05:36:17.997Z,12.52
2018-07-03T05:37:17.991Z,12.66
2018-07-03T05:38:17.836Z,12.70
2018-07-03T05:39:17.877Z,12.78
2018-07-03T05:40:17.689Z,12.82
2018-07-03T05:41:17.685Z,12.91
2018-07-03T05:42:17.535Z,12.99
2018-07-03T05:43:17.495Z,13.00
2018-07-03T05:44:17.381Z,13.17
2018-07-03T05:45:17.405Z,13.11
2018-07-03T05:46:17.235Z,13.29
2018-07-03T05:47:17.418Z,13.33
2018-07-03T05:48:17.076Z,13.48
2018-07-03T05:49:17.019Z,13.48
2018-07-03T05:50:16.922Z,13.66
2018-07-03T05:51:16.931Z,13.59
2018-07-03T05:52:16.776Z,13.70
2018-07-03T05:53:16.836Z,13.78
2018-07-03T05:54:16.632Z,13.91
2018-07-03T05:55:16.651Z,13.96
2018-07-03T05:56:16.512Z,13.99
2018-07-03T05:57:16.462Z,14.03
2018-07-03T05:58:16.312Z,14.01
2018-07-03T05:59:16.268Z,14.16
2018-07-03T06:00:16.159Z,14.31
2018-07-03T06:01:16.178Z,14.35
2018-07-03T06:02:16.007Z,14.29
2018-07-03T06:03:15.981Z,14.36
2018-07-03T06:04:15.854Z,14.39
2018-07-03T06:05:15.895Z,14.46
2018-07-03T06:06:15.702Z,14.50
2018-07-03T06:07:15.704Z,14.61
2018-07-03T06:08:15.551Z,14.72
2018-07-03T06:09:15.591Z,14.75
2018-07-03T06:10:15.402Z,14.85
2018-07-03T06:11:15.423Z,14.91
2018-07-03T06:12:15.248Z,15.02
2018-07-03T06:13:15.235Z,15.02
2018-07-03T06:14:15.093Z,15.13
2018-07-03T06:15:15.041Z,15.13
2018-07-03T06:16:14.968Z,15.30
2018-07-03T06:17:14.953Z,15.26
2018-07-03T06:18:14.792Z,15.34
2018-07-03T06:19:14.762Z,15.48
2018-07-03T06:20:14.639Z,15.48
2018-07-03T06:21:14.670Z,15.57
2018-07-03T06:22:14.492Z,15.66
2018-07-03T06:23:14.476Z,15.63
2018-07-03T06:24:14.339Z,15.73
2018-07-03T06:25:14.270Z,15.89
2018-07-03T06:26:14.187Z,16.00
2018-07-03T06:27:14.199Z,16.06
2018-07-03T06:28:14.037Z,16.15
2018-07-03T06:29:14.011Z,16.10
2018-07-03T06:30:13.891Z,16.14
2018-07-03T06:31:13.917Z,16.33
2018-07-03T06:32:13.736Z,16.40
2018-07-03T06:33:13.726Z,16.47
2018-07-03T06:34:13.585Z,16.47
2018-07-03T06:35:13.535Z,16.59
2018-07-03T06:36:13.429Z,16.73
2018-07-03T06:37:13.446Z,16.80
2018-07-03T06:38:13.283Z,16.77
2018-07-03T06:39:13.253Z,16.82
2018-07-03T06:40:13.130Z,16.85
2018-07-03T06:41:13.166Z,17.02
2018-07-03T06:42:12.987Z,16.93
2018-07-03T06:43:12.972Z,17.03
2018-07-03T06:44:12.833Z,17.14
2018-07-03T06:45:12.960Z,17.20
2018-07-03T06:46:12.684Z,17.21
2018-07-03T06:47:12.691Z,17.30
2018-07-03T06:48:12.537Z,17.35
2018-07-03T06:49:12.499Z,17.40
2018-07-03T06:50:12.388Z,17.57
2018-07-03T06:51:12.411Z,17.55
2018-07-03T06:52:12.237Z,17.57
2018-07-03T06:53:12.216Z,17.73
2018-07-03T06:54:12.087Z,17.67
2018-07-03T06:55:12.131Z,17.69
2018-07-03T06:56:11.936Z,17.70
2018-07-03T06:57:11.938Z,17.82
2018-07-03T06:58:11.790Z,17.91
2018-07-03T06:59:11.748Z,17.94
2018-07-03T07:00:11.636Z,18.04
2018-07-03T07:01:11.658Z,17.98
2018-07-03T07:02:11.492Z,18.06
2018-07-03T07:03:11.466Z,18.07
2018-07-03T07:04:11.342Z,18.13
2018-07-03T07:05:11.380Z,18.24
2018-07-03T07:06:11.194Z,18.31
2018-07-03T07:07:11.185Z,18.39
2018-07-03T07:08:11.049Z,18.61
2018-07-03T07:09:11.013Z,18.57
2018-07-03T07:10:10.898Z,18.64
2018-07-03T07:11:10.905Z,18.62
2018-07-03T07:12:10.750Z,18.65
2018-07-03T07:13:10.711Z,18.77
2018-07-03T07:14:10.602Z,18.79
2018-07-03T07:15:10.625Z,19.01
2018-07-03T07:16:10.460Z,19.11
2018-07-03T07:17:10.433Z,19.18
2018-07-03T07:18:10.307Z,19.31
2018-07-03T07:19:10.345Z,19.33
2018-07-03T07:20:10.165Z,19.27
2018-07-03T07:21:10.152Z,19.39
2018-07-03T07:22:10.013Z,19.51
2018-07-03T07:23:10.011Z,19.53
2018-07-03T07:24:09.867Z,19.58
2018-07-03T07:25:09.872Z,19.64
2018-07-03T07:26:09.722Z,19.76
2018-07-03T07:27:09.678Z,19.90
2018-07-03T07:28:09.575Z,19.93
2018-07-03T07:29:09.633Z,19.90
2018-07-03T07:30:09.428Z,20.03
2018-07-03T07:31:09.399Z,20.15
2018-07-03T07:32:09.281Z,20.10
2018-07-03T07:33:09.308Z,20.33
2018-07-03T07:34:09.136Z,20.35
2018-07-03T07:35:09.121Z,20.51
2018-07-03T07:36:08.990Z,20.49
2018-07-03T07:37:09.028Z,20.59
2018-07-03T07:38:08.844Z,20.71
2018-07-03T07:39:08.837Z,20.80
2018-07-03T07:40:08.699Z,20.90
2018-07-03T07:41:08.652Z,20.99
2018-07-03T07:42:08.554Z,21.04
2018-07-03T07:43:08.557Z,21.09
2018-07-03T07:44:08.408Z,21.33
2018-07-03T07:45:08.367Z,21.45
2018-07-03T07:46:08.265Z,21.44
2018-07-03T07:47:08.281Z,21.54
2018-07-03T07:48:08.123Z,21.59
2018-07-03T07:49:08.339Z,21.67
2018-07-03T07:50:07.985Z,21.72
2018-07-03T07:51:07.998Z,21.79
2018-07-03T07:52:07.851Z,21.89
2018-07-03T07:53:07.805Z,22.01
2018-07-03T07:54:07.691Z,21.92
2018-07-03T07:55:07.718Z,21.84
2018-07-03T07:56:07.548Z,21.92
2018-07-03T07:57:07.484Z,21.92
2018-07-03T07:58:07.404Z,22.00
2018-07-03T07:59:07.441Z,22.10
2018-07-03T08:00:07.265Z,22.10
2018-07-03T08:01:07.243Z,22.08
2018-07-03T08:02:07.117Z,22.20
2018-07-03T08:03:07.157Z,22.37
2018-07-03T08:04:06.980Z,22.39
2018-07-03T08:05:06.918Z,22.52
2018-07-03T08:06:06.837Z,22.54
2018-07-03T08:07:06.874Z,22.75
2018-07-03T08:08:06.699Z,22.81
2018-07-03T08:09:06.682Z,22.93
2018-07-03T08:10:06.554Z,22.96
2018-07-03T08:11:06.593Z,22.97
2018-07-03T08:12:06.414Z,23.00
2018-07-03T08:13:06.401Z,23.17
2018-07-03T08:14:06.273Z,23.20
2018-07-03T08:15:06.314Z,23.17
2018-07-03T08:16:06.132Z,23.26
2018-07-03T08:17:06.120Z,23.24
2018-07-03T08:18:05.993Z,23.18
2018-07-03T08:19:06.041Z,23.29
2018-07-03T08:20:05.852Z,23.29
2018-07-03T08:21:05.843Z,23.48
2018-07-03T08:22:05.714Z,23.52
2018-07-03T08:23:05.751Z,23.60
2018-07-03T08:24:05.573Z,23.72
2018-07-03T08:25:05.512Z,23.83
2018-07-03T08:26:05.434Z,23.80
2018-07-03T08:27:05.470Z,24.04
2018-07-03T08:28:05.296Z,24.07
2018-07-03T08:29:05.283Z,24.10
2018-07-03T08:30:05.156Z,24.01
2018-07-03T08:31:05.188Z,24.22
2018-07-03T08:32:05.019Z,24.22
2018-07-03T08:33:04.997Z,24.32
2018-07-03T08:34:04.946Z,24.30
2018-07-03T08:35:05.732Z,24.44
2018-07-03T08:36:04.741Z,24.48
2018-07-03T08:37:04.718Z,24.56
2018-07-03T08:38:04.607Z,24.35
2018-07-03T08:39:04.633Z,24.40
2018-07-03T08:40:04.464Z,24.27
2018-07-03T08:41:04.437Z,24.42
2018-07-03T08:42:04.330Z,24.45
2018-07-03T08:43:04.348Z,24.54
2018-07-03T08:44:04.190Z,24.47
2018-07-03T08:45:04.156Z,24.53
2018-07-03T08:46:04.052Z,24.57
2018-07-03T08:47:04.068Z,24.50
2018-07-03T08:48:03.917Z,24.66
2018-07-03T08:49:03.876Z,24.82
2018-07-03T08:50:03.786Z,24.82
2018-07-03T08:51:03.785Z,24.88
2018-07-03T08:52:03.702Z,25.01
2018-07-03T08:53:03.595Z,25.09
2018-07-03T08:54:03.510Z,25.10
2018-07-03T08:55:03.513Z,25.17
2018-07-03T08:56:03.376Z,25.32
2018-07-03T08:57:03.418Z,25.41
2018-07-03T08:58:03.239Z,25.45
2018-07-03T08:59:03.227Z,25.35
2018-07-03T09:00:03.102Z,25.45
2018-07-03T09:01:03.137Z,25.64
2018-07-03T09:02:02.964Z,25.72
2018-07-03T09:03:02.945Z,25.77
2018-07-03T09:04:02.831Z,25.74
2018-07-03T09:05:02.858Z,25.79
2018-07-03T09:06:02.696Z,25.68
2018-07-03T09:07:02.664Z,25.70
2018-07-03T09:08:02.563Z,25.75
2018-07-03T09:09:02.577Z,25.75
2018-07-03T09:10:02.431Z,25.87
2018-07-03T09:11:02.384Z,26.04
2018-07-03T09:12:02.290Z,26.07
2018-07-03T09:13:02.295Z,26.18
2018-07-03T09:14:02.161Z,26.04
2018-07-03T09:15:02.206Z,26.12
2018-07-03T09:16:02.029Z,26.24
2018-07-03T09:17:02.014Z,26.38
2018-07-03T09:18:01.917Z,26.40
2018-07-03T09:19:01.926Z,26.49
2018-07-03T09:20:01.755Z,26.62
2018-07-03T09:21:01.734Z,26.53
2018-07-03T09:22:01.624Z,26.76
2018-07-03T09:23:01.645Z,26.80
2018-07-03T09:24:01.488Z,26.87
2018-07-03T09:25:01.453Z,26.95
2018-07-03T09:26:01.357Z,26.98
2018-07-03T09:27:01.364Z,27.14
2018-07-03T09:28:01.222Z,27.20
2018-07-03T09:29:01.171Z,27.31
2018-07-03T09:30:01.090Z,27.29
2018-07-03T09:31:01.086Z,27.23
2018-07-03T09:32:00.957Z,27.20
2018-07-03T09:33:00.991Z,27.20
2018-07-03T09:34:00.820Z,27.12
2018-07-03T09:35:00.809Z,27.23
2018-07-03T09:36:00.692Z,27.14
2018-07-03T09:37:00.714Z,27.09
2018-07-03T09:38:00.557Z,27.14
2018-07-03T09:39:00.522Z,27.31
2018-07-03T09:40:00.427Z,27.17
2018-07-03T09:41:00.433Z,27.26
2018-07-03T09:42:00.297Z,27.20
2018-07-03T09:43:00.344Z,27.23
2018-07-03T09:44:00.160Z,27.23
2018-07-03T09:45:00.153Z,27.23
2018-07-03T09:46:00.029Z,27.14
2018-07-03T09:47:00.063Z,27.14
2018-07-03T09:47:59.899Z,27.31
2018-07-03T09:48:59.872Z,27.29
2018-07-03T09:49:59.765Z,27.31
2018-07-03T09:50:59.784Z,27.29
2018-07-03T09:51:59.630Z,27.29
2018-07-03T09:52:59.593Z,27.14
2018-07-03T09:53:59.505Z,27.01
2018-07-03T09:54:59.532Z,26.98
2018-07-03T09:55:59.372Z,27.12
2018-07-03T09:56:59.315Z,27.23
2018-07-03T09:57:59.239Z,27.21
2018-07-03T09:58:59.181Z,27.13
2018-07-03T09:59:59.107Z,27.26
2018-07-03T10:00:59.048Z,27.34
2018-07-03T10:01:58.976Z,27.41
2018-07-03T10:02:58.920Z,27.49
2018-07-03T10:03:58.846Z,27.54
2018-07-03T10:04:58.787Z,27.70
2018-07-03T10:05:58.714Z,27.80
2018-07-03T10:06:58.658Z,27.83
2018-07-03T10:07:58.584Z,27.88
2018-07-03T10:08:58.531Z,27.84
2018-07-03T10:09:58.451Z,27.87
2018-07-03T10:10:58.397Z,27.79
2018-07-03T10:11:58.324Z,27.83
2018-07-03T10:12:58.314Z,27.89
2018-07-03T10:13:58.193Z,27.94
2018-07-03T10:14:58.134Z,27.98
2018-07-03T10:15:58.064Z,27.98
2018-07-03T10:16:58.006Z,28.09
2018-07-03T10:17:57.930Z,28.19
2018-07-03T10:18:57.949Z,28.13
2018-07-03T10:19:57.799Z,28.16
2018-07-03T10:20:57.743Z,28.28
2018-07-03T10:21:57.670Z,28.20
2018-07-03T10:22:57.616Z,28.35
2018-07-03T10:23:57.539Z,28.43
2018-07-03T10:24:57.482Z,28.44
2018-07-03T10:25:57.411Z,28.49
2018-07-03T10:26:57.351Z,28.36
2018-07-03T10:27:57.278Z,28.38
2018-07-03T10:28:57.221Z,28.38
2018-07-03T10:29:57.149Z,28.38
2018-07-03T10:30:57.093Z,28.43
2018-07-03T10:31:57.022Z,28.38
2018-07-03T10:32:56.964Z,28.43
2018-07-03T10:33:56.890Z,28.36
2018-07-03T10:34:56.832Z,28.19
2018-07-03T10:35:56.762Z,28.29
2018-07-03T10:36:56.700Z,28.26
2018-07-03T10:37:56.630Z,28.49
2018-07-03T10:38:56.576Z,28.51
2018-07-03T10:39:56.501Z,28.53
2018-07-03T10:40:56.449Z,28.57
2018-07-03T10:41:56.372Z,28.53
2018-07-03T10:42:56.314Z,28.59
2018-07-03T10:43:56.238Z,28.56
2018-07-03T10:44:56.187Z,28.65
2018-07-03T10:45:56.112Z,28.61
2018-07-03T10:46:56.060Z,28.68
2018-07-03T10:47:55.982Z,28.62
2018-07-03T10:48:55.927Z,28.69
2018-07-03T10:49:55.853Z,28.73
2018-07-03T10:50:55.809Z,28.83
2018-07-03T10:51:55.730Z,28.94
2018-07-03T10:52:55.665Z,29.10
2018-07-03T10:53:55.598Z,29.13
2018-07-03T10:54:55.546Z,29.14
2018-07-03T10:55:55.468Z,29.25
2018-07-03T10:56:55.411Z,29.31
2018-07-03T10:57:55.339Z,29.38
2018-07-03T10:58:55.286Z,29.46
2018-07-03T10:59:55.211Z,29.48
2018-07-03T11:00:55.157Z,29.55
2018-07-03T11:01:55.084Z,29.51
2018-07-03T11:02:55.027Z,29.51
2018-07-03T11:03:54.958Z,29.55
2018-07-03T11:04:54.899Z,29.47
2018-07-03T11:05:54.824Z,29.56
2018-07-03T11:06:54.773Z,29.55
2018-07-03T11:07:54.701Z,29.51
2018-07-03T11:08:54.639Z,29.56
2018-07-03T11:09:54.569Z,29.55
2018-07-03T11:10:54.512Z,29.60
2018-07-03T11:11:54.443Z,29.68
2018-07-03T11:12:54.386Z,29.58
2018-07-03T11:13:54.354Z,29.50
2018-07-03T11:14:54.263Z,29.44
2018-07-03T11:15:54.182Z,29.36
2018-07-03T11:16:54.130Z,29.22
2018-07-03T11:17:54.056Z,29.36
2018-07-03T11:18:54.007Z,29.25
2018-07-03T11:19:54.055Z,29.31
2018-07-03T11:20:53.872Z,29.41
2018-07-03T11:21:53.803Z,29.37
2018-07-03T11:22:53.750Z,29.40
2018-07-03T11:23:53.673Z,29.10
2018-07-03T11:24:53.617Z,28.94
2018-07-03T11:25:53.547Z,28.73
2018-07-03T11:26:53.490Z,28.83
2018-07-03T11:27:53.425Z,28.88
2018-07-03T11:28:53.376Z,29.03
2018-07-03T11:29:53.289Z,29.13
2018-07-03T11:30:53.240Z,29.10
2018-07-03T11:31:53.162Z,29.14
2018-07-03T11:32:53.119Z,29.09
2018-07-03T11:33:53.039Z,29.18
2018-07-03T11:34:52.981Z,29.29
2018-07-03T11:35:52.910Z,29.31
2018-07-03T11:36:52.853Z,29.22
2018-07-03T11:37:52.782Z,29.31
2018-07-03T11:38:52.726Z,29.38
2018-07-03T11:39:52.654Z,29.41
2018-07-03T11:40:52.598Z,29.44
2018-07-03T11:41:52.532Z,29.44
2018-07-03T11:42:52.473Z,29.48
2018-07-03T11:43:52.404Z,29.51
2018-07-03T11:44:52.402Z,29.59
2018-07-03T11:45:52.273Z,29.50
2018-07-03T11:46:52.219Z,29.36
2018-07-03T11:47:52.139Z,29.36
2018-07-03T11:48:52.096Z,29.50
2018-07-03T11:49:52.019Z,29.48
2018-07-03T11:50:51.965Z,29.53
2018-07-03T11:51:51.897Z,29.62
2018-07-03T11:52:51.833Z,29.69
2018-07-03T11:53:51.765Z,29.84
2018-07-03T11:54:51.712Z,30.02
2018-07-03T11:55:51.637Z,30.05
2018-07-03T11:56:51.580Z,30.11
2018-07-03T11:57:51.513Z,30.12
2018-07-03T11:58:51.454Z,30.29
2018-07-03T11:59:51.382Z,30.36
2018-07-03T12:00:51.328Z,30.29
2018-07-03T12:01:51.257Z,30.36
2018-07-03T12:02:51.207Z,30.26
2018-07-03T12:03:51.134Z,30.37
2018-07-03T12:04:51.073Z,30.26
2018-07-03T12:05:51.004Z,30.29
2018-07-03T12:06:50.945Z,30.36
2018-07-03T12:07:50.880Z,30.34
2018-07-03T12:08:50.825Z,30.39
2018-07-03T12:09:50.790Z,30.24
2018-07-03T12:10:50.689Z,30.26
2018-07-03T12:11:50.703Z,30.34
2018-07-03T12:12:50.563Z,30.36
2018-07-03T12:13:50.613Z,30.39
2018-07-03T12:14:50.437Z,30.34
2018-07-03T12:15:50.420Z,30.29
2018-07-03T12:16:50.308Z,30.33
2018-07-03T12:17:50.332Z,30.17
2018-07-03T12:18:50.183Z,30.02
2018-07-03T12:19:50.178Z,29.68
2018-07-03T12:20:50.058Z,29.58
2018-07-03T12:21:50.060Z,29.69
2018-07-03T12:22:49.929Z,29.66
2018-07-03T12:23:49.965Z,29.66
2018-07-03T12:24:49.802Z,29.81
2018-07-03T12:25:49.776Z,29.84
2018-07-03T12:26:49.678Z,29.80
2018-07-03T12:27:49.686Z,29.89
2018-07-03T12:28:49.599Z,29.93
2018-07-03T12:29:49.597Z,30.05
2018-07-03T12:30:49.425Z,30.15
2018-07-03T12:31:49.408Z,30.14
2018-07-03T12:32:49.299Z,30.06
2018-07-03T12:33:49.317Z,29.99
2018-07-03T12:34:49.176Z,29.60
2018-07-03T12:35:49.230Z,29.43
2018-07-03T12:36:49.060Z,29.50
2018-07-03T12:37:49.039Z,29.53
2018-07-03T12:38:48.921Z,29.68
2018-07-03T12:39:48.948Z,29.75
2018-07-03T12:40:48.793Z,30.02
2018-07-03T12:41:48.759Z,30.14
2018-07-03T12:42:48.670Z,30.26
2018-07-03T12:43:48.670Z,30.32
2018-07-03T12:44:48.542Z,30.48
2018-07-03T12:45:48.582Z,30.43
2018-07-03T12:46:48.426Z,30.50
2018-07-03T12:47:48.393Z,30.56
2018-07-03T12:48:48.291Z,30.60
2018-07-03T12:49:48.347Z,30.57
2018-07-03T12:50:48.172Z,30.68
2018-07-03T12:51:48.208Z,30.62
2018-07-03T12:52:48.039Z,30.62
2018-07-03T12:53:48.021Z,30.64
2018-07-03T12:54:47.915Z,30.67
2018-07-03T12:55:47.933Z,30.59